Aviation Digital Data Service (ADDS)

Output produced by METARs form (2134 UTC 06 May 2015)
found at http://aviationweather.gov/adds/metars/
 
KLYH 061732Z 0618/0718 VRB04KT P6SM SCT060 SCT100 
     FM070900 00000KT 4SM BR SCT100 
     FM071200 05004KT 5SM BR BKN025 
     FM071500 07005KT P6SM SCT025 SCT050